sensor_id;sensor_type;location;lat;lon;timestamp;temperature;humidity
19256;DHT22;9762;52.490;13.410;2022-11-15T00:01:36;11.10;98.80
19256;DHT22;9762;52.490;13.410;2022-11-15T00:04:05;11.10;98.80
19256;DHT22;9762;52.490;13.410;2022-11-15T00:06:30;11.10;98.90
19256;DHT22;9762;52.490;13.410;2022-11-15T00:09:00;11.00;99.00
19256;DHT22;9762;52.490;13.410;2022-11-15T00:11:26;11.10;98.90
19256;DHT22;9762;52.490;13.410;2022-11-15T00:13:55;11.10;98.90
19256;DHT22;9762;52.490;13.410;2022-11-15T00:16:22;11.00;98.80
19256;DHT22;9762;52.490;13.410;2022-11-15T00:18:48;11.00;98.80
19256;DHT22;9762;52.490;13.410;2022-11-15T00:21:14;11.00;98.80
19256;DHT22;9762;52.490;13.410;2022-11-15T00:23:40;11.00;98.70
19256;DHT22;9762;52.490;13.410;2022-11-15T00:26:06;11.00;98.80
19256;DHT22;9762;52.490;13.410;2022-11-15T00:28:32;11.00;98.80
19256;DHT22;9762;52.490;13.410;2022-11-15T00:31:02;11.00;98.80
19256;DHT22;9762;52.490;13.410;2022-11-15T00:33:28;11.00;98.80
19256;DHT22;9762;52.490;13.410;2022-11-15T00:36:08;11.00;98.80
19256;DHT22;9762;52.490;13.410;2022-11-15T00:38:36;11.00;98.80
19256;DHT22;9762;52.490;13.410;2022-11-15T00:41:03;11.00;98.80
19256;DHT22;9762;52.490;13.410;2022-11-15T00:43:29;10.90;98.80
19256;DHT22;9762;52.490;13.410;2022-11-15T00:45:55;10.90;98.80
19256;DHT22;9762;52.490;13.410;2022-11-15T00:48:21;10.90;98.80
19256;DHT22;9762;52.490;13.410;2022-11-15T00:50:47;10.90;98.80
19256;DHT22;9762;52.490;13.410;2022-11-15T00:53:13;10.90;98.80
19256;DHT22;9762;52.490;13.410;2022-11-15T00:55:39;10.90;98.90
19256;DHT22;9762;52.490;13.410;2022-11-15T00:58:04;10.90;98.90
19256;DHT22;9762;52.490;13.410;2022-11-15T01:00:30;10.90;98.90
19256;DHT22;9762;52.490;13.410;2022-11-15T01:02:55;10.90;98.90
19256;DHT22;9762;52.490;13.410;2022-11-15T01:05:22;10.80;99.00
19256;DHT22;9762;52.490;13.410;2022-11-15T01:07:51;10.90;99.10
19256;DHT22;9762;52.490;13.410;2022-11-15T01:10:18;10.90;99.00
19256;DHT22;9762;52.490;13.410;2022-11-15T01:12:43;10.80;98.90
19256;DHT22;9762;52.490;13.410;2022-11-15T01:15:09;10.90;99.00
19256;DHT22;9762;52.490;13.410;2022-11-15T01:17:34;10.80;99.00
19256;DHT22;9762;52.490;13.410;2022-11-15T01:20:00;10.80;99.00
19256;DHT22;9762;52.490;13.410;2022-11-15T01:22:26;10.80;98.90
19256;DHT22;9762;52.490;13.410;2022-11-15T01:24:52;10.80;98.90
19256;DHT22;9762;52.490;13.410;2022-11-15T01:27:17;10.80;98.90
19256;DHT22;9762;52.490;13.410;2022-11-15T01:29:43;10.80;98.90
19256;DHT22;9762;52.490;13.410;2022-11-15T01:32:09;10.80;98.80
19256;DHT22;9762;52.490;13.410;2022-11-15T01:34:34;10.80;98.80
19256;DHT22;9762;52.490;13.410;2022-11-15T01:37:00;10.80;98.80
19256;DHT22;9762;52.490;13.410;2022-11-15T01:39:25;10.80;98.80
19256;DHT22;9762;52.490;13.410;2022-11-15T01:41:52;10.80;98.80
19256;DHT22;9762;52.490;13.410;2022-11-15T01:44:39;10.70;98.80
19256;DHT22;9762;52.490;13.410;2022-11-15T01:47:12;10.70;98.90
19256;DHT22;9762;52.490;13.410;2022-11-15T01:49:56;10.70;98.90
19256;DHT22;9762;52.490;13.410;2022-11-15T01:52:25;10.70;98.70
19256;DHT22;9762;52.490;13.410;2022-11-15T01:55:07;10.70;98.70
19256;DHT22;9762;52.490;13.410;2022-11-15T01:57:34;10.70;98.80
19256;DHT22;9762;52.490;13.410;2022-11-15T02:00:01;10.70;98.80
19256;DHT22;9762;52.490;13.410;2022-11-15T02:02:27;10.60;98.70
19256;DHT22;9762;52.490;13.410;2022-11-15T02:04:53;10.60;98.70
19256;DHT22;9762;52.490;13.410;2022-11-15T02:07:20;10.60;98.70
19256;DHT22;9762;52.490;13.410;2022-11-15T02:09:46;10.60;98.80
19256;DHT22;9762;52.490;13.410;2022-11-15T02:12:16;10.60;98.90
19256;DHT22;9762;52.490;13.410;2022-11-15T02:14:46;10.60;98.90
19256;DHT22;9762;52.490;13.410;2022-11-15T02:24:15;10.50;98.90
19256;DHT22;9762;52.490;13.410;2022-11-15T02:31:36;10.50;98.90
19256;DHT22;9762;52.490;13.410;2022-11-15T02:34:12;10.50;99.00
19256;DHT22;9762;52.490;13.410;2022-11-15T02:37:00;10.50;99.00
19256;DHT22;9762;52.490;13.410;2022-11-15T02:42:14;10.50;98.80
19256;DHT22;9762;52.490;13.410;2022-11-15T02:45:04;10.50;98.80
19256;DHT22;9762;52.490;13.410;2022-11-15T02:47:34;10.50;98.90
19256;DHT22;9762;52.490;13.410;2022-11-15T02:50:08;10.50;98.90
19256;DHT22;9762;52.490;13.410;2022-11-15T02:52:34;10.50;99.00
19256;DHT22;9762;52.490;13.410;2022-11-15T02:55:00;10.40;99.00
19256;DHT22;9762;52.490;13.410;2022-11-15T03:05:00;10.40;98.90
19256;DHT22;9762;52.490;13.410;2022-11-15T03:13:58;10.40;99.00
19256;DHT22;9762;52.490;13.410;2022-11-15T03:16:36;10.40;99.00
19256;DHT22;9762;52.490;13.410;2022-11-15T03:21:31;10.40;99.10
19256;DHT22;9762;52.490;13.410;2022-11-15T03:24:01;10.40;99.10
19256;DHT22;9762;52.490;13.410;2022-11-15T03:26:28;10.40;99.20
19256;DHT22;9762;52.490;13.410;2022-11-15T03:29:04;10.40;99.20
19256;DHT22;9762;52.490;13.410;2022-11-15T03:31:34;10.40;99.20
19256;DHT22;9762;52.490;13.410;2022-11-15T03:34:35;10.40;99.40
19256;DHT22;9762;52.490;13.410;2022-11-15T03:37:01;10.40;99.40
19256;DHT22;9762;52.490;13.410;2022-11-15T03:39:27;10.40;99.30
19256;DHT22;9762;52.490;13.410;2022-11-15T03:44:51;10.40;99.20
19256;DHT22;9762;52.490;13.410;2022-11-15T03:47:24;10.50;99.30
19256;DHT22;9762;52.490;13.410;2022-11-15T03:50:02;10.50;99.30
19256;DHT22;9762;52.490;13.410;2022-11-15T03:52:31;10.40;99.20
19256;DHT22;9762;52.490;13.410;2022-11-15T03:55:00;10.50;99.30
19256;DHT22;9762;52.490;13.410;2022-11-15T03:57:26;10.50;99.30
19256;DHT22;9762;52.490;13.410;2022-11-15T03:59:52;10.50;99.30
19256;DHT22;9762;52.490;13.410;2022-11-15T04:02:17;10.50;99.30
19256;DHT22;9762;52.490;13.410;2022-11-15T04:04:43;10.40;99.20
19256;DHT22;9762;52.490;13.410;2022-11-15T04:07:08;10.40;99.30
19256;DHT22;9762;52.490;13.410;2022-11-15T04:09:34;10.40;99.20
19256;DHT22;9762;52.490;13.410;2022-11-15T04:12:19;10.50;99.20
19256;DHT22;9762;52.490;13.410;2022-11-15T04:14:56;10.40;99.20
19256;DHT22;9762;52.490;13.410;2022-11-15T04:17:47;10.40;99.10
19256;DHT22;9762;52.490;13.410;2022-11-15T04:20:23;10.40;99.10
19256;DHT22;9762;52.490;13.410;2022-11-15T04:23:13;10.40;99.10
19256;DHT22;9762;52.490;13.410;2022-11-15T04:26:10;10.40;99.10
19256;DHT22;9762;52.490;13.410;2022-11-15T04:28:36;10.40;99.10
19256;DHT22;9762;52.490;13.410;2022-11-15T04:31:22;10.40;99.10
19256;DHT22;9762;52.490;13.410;2022-11-15T04:33:47;10.40;99.10
19256;DHT22;9762;52.490;13.410;2022-11-15T04:36:13;10.40;99.20
19256;DHT22;9762;52.490;13.410;2022-11-15T04:38:58;10.40;99.20
19256;DHT22;9762;52.490;13.410;2022-11-15T04:41:23;10.40;99.20
19256;DHT22;9762;52.490;13.410;2022-11-15T04:43:49;10.40;99.10
19256;DHT22;9762;52.490;13.410;2022-11-15T04:46:14;10.40;99.10
19256;DHT22;9762;52.490;13.410;2022-11-15T04:48:40;10.40;99.00
19256;DHT22;9762;52.490;13.410;2022-11-15T04:51:05;10.40;99.00
19256;DHT22;9762;52.490;13.410;2022-11-15T04:53:31;10.40;99.00
19256;DHT22;9762;52.490;13.410;2022-11-15T04:55:56;10.40;99.00
19256;DHT22;9762;52.490;13.410;2022-11-15T04:58:22;10.40;99.00
19256;DHT22;9762;52.490;13.410;2022-11-15T05:00:48;10.40;99.00
19256;DHT22;9762;52.490;13.410;2022-11-15T05:03:13;10.40;99.00
19256;DHT22;9762;52.490;13.410;2022-11-15T05:05:58;10.40;99.00
19256;DHT22;9762;52.490;13.410;2022-11-15T05:08:24;10.40;98.90
19256;DHT22;9762;52.490;13.410;2022-11-15T05:10:50;10.40;98.90
19256;DHT22;9762;52.490;13.410;2022-11-15T05:13:16;10.40;98.90
19256;DHT22;9762;52.490;13.410;2022-11-15T05:15:41;10.40;98.90
19256;DHT22;9762;52.490;13.410;2022-11-15T05:18:07;10.40;98.90
19256;DHT22;9762;52.490;13.410;2022-11-15T05:20:32;10.40;99.00
19256;DHT22;9762;52.490;13.410;2022-11-15T05:22:58;10.40;99.00
19256;DHT22;9762;52.490;13.410;2022-11-15T05:25:25;10.40;98.90
19256;DHT22;9762;52.490;13.410;2022-11-15T05:27:51;10.40;98.90
19256;DHT22;9762;52.490;13.410;2022-11-15T05:30:17;10.40;99.00
19256;DHT22;9762;52.490;13.410;2022-11-15T05:32:43;10.40;98.90
19256;DHT22;9762;52.490;13.410;2022-11-15T05:38:06;10.40;99.00
19256;DHT22;9762;52.490;13.410;2022-11-15T05:40:32;10.40;99.00
19256;DHT22;9762;52.490;13.410;2022-11-15T05:43:01;10.40;99.00
19256;DHT22;9762;52.490;13.410;2022-11-15T05:45:28;10.40;99.00
19256;DHT22;9762;52.490;13.410;2022-11-15T05:47:55;10.40;99.00
19256;DHT22;9762;52.490;13.410;2022-11-15T05:50:22;10.40;98.90
19256;DHT22;9762;52.490;13.410;2022-11-15T05:52:48;10.40;98.90
19256;DHT22;9762;52.490;13.410;2022-11-15T05:55:14;10.40;98.90
19256;DHT22;9762;52.490;13.410;2022-11-15T05:57:40;10.40;98.90
19256;DHT22;9762;52.490;13.410;2022-11-15T06:00:06;10.40;98.90
19256;DHT22;9762;52.490;13.410;2022-11-15T06:02:33;10.40;98.80
19256;DHT22;9762;52.490;13.410;2022-11-15T06:05:01;10.40;98.80
19256;DHT22;9762;52.490;13.410;2022-11-15T06:07:29;10.40;98.70
19256;DHT22;9762;52.490;13.410;2022-11-15T06:09:54;10.40;98.80
19256;DHT22;9762;52.490;13.410;2022-11-15T06:12:20;10.40;98.80
19256;DHT22;9762;52.490;13.410;2022-11-15T06:14:45;10.40;98.80
19256;DHT22;9762;52.490;13.410;2022-11-15T06:17:11;10.40;98.80
19256;DHT22;9762;52.490;13.410;2022-11-15T06:19:36;10.40;98.90
19256;DHT22;9762;52.490;13.410;2022-11-15T06:22:02;10.40;98.90
19256;DHT22;9762;52.490;13.410;2022-11-15T06:24:28;10.40;98.90
19256;DHT22;9762;52.490;13.410;2022-11-15T06:26:53;10.40;98.90
19256;DHT22;9762;52.490;13.410;2022-11-15T06:29:19;10.40;98.90
19256;DHT22;9762;52.490;13.410;2022-11-15T06:31:45;10.40;99.30
19256;DHT22;9762;52.490;13.410;2022-11-15T06:34:10;10.40;99.40
19256;DHT22;9762;52.490;13.410;2022-11-15T06:36:36;10.40;99.30
19256;DHT22;9762;52.490;13.410;2022-11-15T06:39:03;10.40;99.40
19256;DHT22;9762;52.490;13.410;2022-11-15T06:41:29;10.40;99.40
19256;DHT22;9762;52.490;13.410;2022-11-15T06:43:56;10.40;99.40
19256;DHT22;9762;52.490;13.410;2022-11-15T06:46:21;10.40;99.40
19256;DHT22;9762;52.490;13.410;2022-11-15T06:48:47;10.40;99.40
19256;DHT22;9762;52.490;13.410;2022-11-15T06:51:14;10.40;99.30
19256;DHT22;9762;52.490;13.410;2022-11-15T06:53:40;10.40;99.20
19256;DHT22;9762;52.490;13.410;2022-11-15T06:56:06;10.40;99.20
19256;DHT22;9762;52.490;13.410;2022-11-15T06:58:32;10.40;99.10
19256;DHT22;9762;52.490;13.410;2022-11-15T07:01:10;10.40;99.10
19256;DHT22;9762;52.490;13.410;2022-11-15T07:03:41;10.40;99.20
19256;DHT22;9762;52.490;13.410;2022-11-15T07:06:08;10.40;99.20
19256;DHT22;9762;52.490;13.410;2022-11-15T07:08:34;10.40;99.10
19256;DHT22;9762;52.490;13.410;2022-11-15T07:11:02;10.40;99.30
19256;DHT22;9762;52.490;13.410;2022-11-15T07:13:29;10.40;99.50
19256;DHT22;9762;52.490;13.410;2022-11-15T07:16:01;10.50;99.50
19256;DHT22;9762;52.490;13.410;2022-11-15T07:18:26;10.50;99.50
19256;DHT22;9762;52.490;13.410;2022-11-15T07:20:52;10.60;99.50
19256;DHT22;9762;52.490;13.410;2022-11-15T07:23:18;10.60;99.40
19256;DHT22;9762;52.490;13.410;2022-11-15T07:25:43;10.70;99.40
19256;DHT22;9762;52.490;13.410;2022-11-15T07:28:09;10.70;99.30
19256;DHT22;9762;52.490;13.410;2022-11-15T07:30:35;10.70;99.20
19256;DHT22;9762;52.490;13.410;2022-11-15T07:33:01;10.80;99.20
19256;DHT22;9762;52.490;13.410;2022-11-15T07:35:27;10.80;99.20
19256;DHT22;9762;52.490;13.410;2022-11-15T07:38:03;10.80;99.20
19256;DHT22;9762;52.490;13.410;2022-11-15T07:40:31;10.90;99.40
19256;DHT22;9762;52.490;13.410;2022-11-15T07:45:26;10.90;99.60
19256;DHT22;9762;52.490;13.410;2022-11-15T07:47:53;10.90;99.60
19256;DHT22;9762;52.490;13.410;2022-11-15T07:50:19;11.00;99.60
19256;DHT22;9762;52.490;13.410;2022-11-15T07:52:45;11.00;99.60
19256;DHT22;9762;52.490;13.410;2022-11-15T07:55:11;11.10;99.60
19256;DHT22;9762;52.490;13.410;2022-11-15T07:57:37;11.10;99.60
19256;DHT22;9762;52.490;13.410;2022-11-15T08:00:04;11.20;99.60
19256;DHT22;9762;52.490;13.410;2022-11-15T08:02:30;11.20;99.60
19256;DHT22;9762;52.490;13.410;2022-11-15T08:04:55;11.30;99.50
19256;DHT22;9762;52.490;13.410;2022-11-15T08:07:21;11.30;99.40
19256;DHT22;9762;52.490;13.410;2022-11-15T08:09:46;11.40;99.20
19256;DHT22;9762;52.490;13.410;2022-11-15T08:12:12;11.40;99.20
19256;DHT22;9762;52.490;13.410;2022-11-15T08:14:38;11.50;99.10
19256;DHT22;9762;52.490;13.410;2022-11-15T08:17:03;11.50;99.10
19256;DHT22;9762;52.490;13.410;2022-11-15T08:19:29;11.50;99.10
19256;DHT22;9762;52.490;13.410;2022-11-15T08:21:55;11.50;99.00
19256;DHT22;9762;52.490;13.410;2022-11-15T08:24:20;11.60;99.00
19256;DHT22;9762;52.490;13.410;2022-11-15T08:26:46;11.60;98.90
19256;DHT22;9762;52.490;13.410;2022-11-15T08:29:12;11.60;99.10
19256;DHT22;9762;52.490;13.410;2022-11-15T08:31:38;11.60;99.20
19256;DHT22;9762;52.490;13.410;2022-11-15T08:34:04;11.80;99.20
19256;DHT22;9762;52.490;13.410;2022-11-15T08:36:30;11.80;99.10
19256;DHT22;9762;52.490;13.410;2022-11-15T08:38:56;11.80;99.10
19256;DHT22;9762;52.490;13.410;2022-11-15T08:41:36;11.80;99.10
19256;DHT22;9762;52.490;13.410;2022-11-15T08:44:02;11.90;99.00
19256;DHT22;9762;52.490;13.410;2022-11-15T08:46:28;11.90;99.00
19256;DHT22;9762;52.490;13.410;2022-11-15T08:48:53;12.00;98.90
19256;DHT22;9762;52.490;13.410;2022-11-15T08:51:19;12.00;98.90
19256;DHT22;9762;52.490;13.410;2022-11-15T08:53:45;12.10;98.90
19256;DHT22;9762;52.490;13.410;2022-11-15T08:56:12;12.10;98.80
19256;DHT22;9762;52.490;13.410;2022-11-15T08:58:38;12.20;98.90
19256;DHT22;9762;52.490;13.410;2022-11-15T09:01:04;12.20;98.80
19256;DHT22;9762;52.490;13.410;2022-11-15T09:03:30;12.20;98.90
19256;DHT22;9762;52.490;13.410;2022-11-15T09:05:57;12.30;98.90
19256;DHT22;9762;52.490;13.410;2022-11-15T09:08:23;12.30;98.80
19256;DHT22;9762;52.490;13.410;2022-11-15T09:10:49;12.30;99.10
19256;DHT22;9762;52.490;13.410;2022-11-15T09:13:14;12.40;98.80
19256;DHT22;9762;52.490;13.410;2022-11-15T09:15:40;12.50;98.80
19256;DHT22;9762;52.490;13.410;2022-11-15T09:18:06;12.50;98.60
19256;DHT22;9762;52.490;13.410;2022-11-15T09:20:31;12.50;98.60
19256;DHT22;9762;52.490;13.410;2022-11-15T09:23:04;12.60;98.60
19256;DHT22;9762;52.490;13.410;2022-11-15T09:25:30;12.60;98.60
19256;DHT22;9762;52.490;13.410;2022-11-15T09:27:56;12.70;98.60
19256;DHT22;9762;52.490;13.410;2022-11-15T09:30:22;12.80;98.40
19256;DHT22;9762;52.490;13.410;2022-11-15T09:32:48;12.80;98.60
19256;DHT22;9762;52.490;13.410;2022-11-15T09:35:14;12.80;98.90
19256;DHT22;9762;52.490;13.410;2022-11-15T09:37:40;12.90;99.00
19256;DHT22;9762;52.490;13.410;2022-11-15T09:40:09;13.00;98.80
19256;DHT22;9762;52.490;13.410;2022-11-15T09:45:13;13.10;98.10
19256;DHT22;9762;52.490;13.410;2022-11-15T09:50:38;13.20;97.90
19256;DHT22;9762;52.490;13.410;2022-11-15T09:53:08;13.30;97.70
19256;DHT22;9762;52.490;13.410;2022-11-15T09:55:46;13.30;97.60
19256;DHT22;9762;52.490;13.410;2022-11-15T09:58:42;13.40;97.40
19256;DHT22;9762;52.490;13.410;2022-11-15T10:01:20;13.40;97.50
19256;DHT22;9762;52.490;13.410;2022-11-15T10:03:48;13.50;97.30
19256;DHT22;9762;52.490;13.410;2022-11-15T10:06:25;13.50;97.30
19256;DHT22;9762;52.490;13.410;2022-11-15T10:09:00;13.50;97.60
19256;DHT22;9762;52.490;13.410;2022-11-15T10:11:32;13.60;97.30
19256;DHT22;9762;52.490;13.410;2022-11-15T10:14:01;13.60;97.30
19256;DHT22;9762;52.490;13.410;2022-11-15T10:22:02;13.80;97.00
19256;DHT22;9762;52.490;13.410;2022-11-15T10:24:37;13.80;97.00
19256;DHT22;9762;52.490;13.410;2022-11-15T10:27:12;13.90;96.80
19256;DHT22;9762;52.490;13.410;2022-11-15T10:29:46;14.00;97.20
19256;DHT22;9762;52.490;13.410;2022-11-15T10:32:14;14.00;97.10
19256;DHT22;9762;52.490;13.410;2022-11-15T10:34:40;14.10;97.00
19256;DHT22;9762;52.490;13.410;2022-11-15T10:37:06;14.10;96.70
19256;DHT22;9762;52.490;13.410;2022-11-15T10:39:31;14.20;96.70
19256;DHT22;9762;52.490;13.410;2022-11-15T10:42:27;14.30;96.70
19256;DHT22;9762;52.490;13.410;2022-11-15T10:44:54;14.40;97.00
19256;DHT22;9762;52.490;13.410;2022-11-15T10:47:23;14.50;96.50
19256;DHT22;9762;52.490;13.410;2022-11-15T10:49:58;14.60;96.50
19256;DHT22;9762;52.490;13.410;2022-11-15T10:52:24;14.60;96.30
19256;DHT22;9762;52.490;13.410;2022-11-15T10:57:26;14.70;95.80
19256;DHT22;9762;52.490;13.410;2022-11-15T10:59:58;14.80;95.90
19256;DHT22;9762;52.490;13.410;2022-11-15T11:04:54;14.90;95.60
19256;DHT22;9762;52.490;13.410;2022-11-15T11:07:29;15.00;95.40
19256;DHT22;9762;52.490;13.410;2022-11-15T11:12:31;15.10;95.10
19256;DHT22;9762;52.490;13.410;2022-11-15T11:15:01;15.10;95.20
19256;DHT22;9762;52.490;13.410;2022-11-15T11:18:02;15.10;95.10
19256;DHT22;9762;52.490;13.410;2022-11-15T11:20:53;15.20;95.20
19256;DHT22;9762;52.490;13.410;2022-11-15T11:23:50;15.20;95.30
19256;DHT22;9762;52.490;13.410;2022-11-15T11:34:58;15.40;94.80
19256;DHT22;9762;52.490;13.410;2022-11-15T11:42:59;15.50;94.60
19256;DHT22;9762;52.490;13.410;2022-11-15T11:50:37;15.70;94.60
19256;DHT22;9762;52.490;13.410;2022-11-15T11:53:17;15.70;94.50
19256;DHT22;9762;52.490;13.410;2022-11-15T11:55:52;15.80;94.60
19256;DHT22;9762;52.490;13.410;2022-11-15T11:58:19;15.80;94.30
19256;DHT22;9762;52.490;13.410;2022-11-15T12:00:52;15.80;94.30
19256;DHT22;9762;52.490;13.410;2022-11-15T12:03:38;15.90;94.50
19256;DHT22;9762;52.490;13.410;2022-11-15T12:09:29;16.00;94.10
19256;DHT22;9762;52.490;13.410;2022-11-15T12:12:02;16.00;94.30
19256;DHT22;9762;52.490;13.410;2022-11-15T12:14:53;16.00;94.20
19256;DHT22;9762;52.490;13.410;2022-11-15T12:17:24;16.10;93.90
19256;DHT22;9762;52.490;13.410;2022-11-15T12:19:51;16.10;93.90
19256;DHT22;9762;52.490;13.410;2022-11-15T12:27:51;16.30;93.90
19256;DHT22;9762;52.490;13.410;2022-11-15T12:30:21;16.30;93.90
19256;DHT22;9762;52.490;13.410;2022-11-15T12:33:00;16.40;93.90
19256;DHT22;9762;52.490;13.410;2022-11-15T12:38:03;16.40;93.80
19256;DHT22;9762;52.490;13.410;2022-11-15T12:43:44;16.50;93.50
19256;DHT22;9762;52.490;13.410;2022-11-15T12:46:22;16.50;93.70
19256;DHT22;9762;52.490;13.410;2022-11-15T12:48:51;16.50;93.70
19256;DHT22;9762;52.490;13.410;2022-11-15T12:51:20;16.50;93.70
19256;DHT22;9762;52.490;13.410;2022-11-15T12:53:46;16.60;93.80
19256;DHT22;9762;52.490;13.410;2022-11-15T12:58:52;16.70;93.90
19256;DHT22;9762;52.490;13.410;2022-11-15T13:04:09;16.70;93.70
19256;DHT22;9762;52.490;13.410;2022-11-15T13:06:41;16.80;93.60
19256;DHT22;9762;52.490;13.410;2022-11-15T13:12:09;16.70;93.20
19256;DHT22;9762;52.490;13.410;2022-11-15T13:15:31;16.70;93.40
19256;DHT22;9762;52.490;13.410;2022-11-15T13:20:28;16.80;93.50
19256;DHT22;9762;52.490;13.410;2022-11-15T13:23:10;16.80;93.50
19256;DHT22;9762;52.490;13.410;2022-11-15T13:28:57;16.80;93.40
19256;DHT22;9762;52.490;13.410;2022-11-15T13:33:52;16.90;93.40
19256;DHT22;9762;52.490;13.410;2022-11-15T13:36:25;16.90;93.30
19256;DHT22;9762;52.490;13.410;2022-11-15T13:38:57;16.90;93.30
19256;DHT22;9762;52.490;13.410;2022-11-15T13:41:31;16.90;93.20
19256;DHT22;9762;52.490;13.410;2022-11-15T13:43:58;16.90;93.10
19256;DHT22;9762;52.490;13.410;2022-11-15T13:46:28;16.90;93.10
19256;DHT22;9762;52.490;13.410;2022-11-15T13:48:58;16.90;93.00
19256;DHT22;9762;52.490;13.410;2022-11-15T13:51:43;16.90;93.00
19256;DHT22;9762;52.490;13.410;2022-11-15T13:54:24;16.90;92.90
19256;DHT22;9762;52.490;13.410;2022-11-15T13:57:02;16.90;92.70
19256;DHT22;9762;52.490;13.410;2022-11-15T13:59:36;16.90;92.90
19256;DHT22;9762;52.490;13.410;2022-11-15T14:02:12;16.90;92.90
19256;DHT22;9762;52.490;13.410;2022-11-15T14:04:46;16.80;92.90
19256;DHT22;9762;52.490;13.410;2022-11-15T14:07:18;16.80;92.90
19256;DHT22;9762;52.490;13.410;2022-11-15T14:09:45;16.80;93.00
19256;DHT22;9762;52.490;13.410;2022-11-15T14:12:33;16.80;93.00
19256;DHT22;9762;52.490;13.410;2022-11-15T14:15:17;16.80;93.10
19256;DHT22;9762;52.490;13.410;2022-11-15T14:17:43;16.80;93.00
19256;DHT22;9762;52.490;13.410;2022-11-15T14:20:39;16.80;92.80
19256;DHT22;9762;52.490;13.410;2022-11-15T14:23:19;16.80;92.90
19256;DHT22;9762;52.490;13.410;2022-11-15T14:25:58;16.70;92.90
19256;DHT22;9762;52.490;13.410;2022-11-15T14:30:52;16.50;93.10
19256;DHT22;9762;52.490;13.410;2022-11-15T14:33:25;16.50;93.30
19256;DHT22;9762;52.490;13.410;2022-11-15T14:35:54;16.40;93.30
19256;DHT22;9762;52.490;13.410;2022-11-15T14:38:21;16.30;93.40
19256;DHT22;9762;52.490;13.410;2022-11-15T14:40:47;16.30;93.40
19256;DHT22;9762;52.490;13.410;2022-11-15T14:43:13;16.30;93.50
19256;DHT22;9762;52.490;13.410;2022-11-15T14:45:38;16.30;93.50
19256;DHT22;9762;52.490;13.410;2022-11-15T14:48:04;16.30;93.50
19256;DHT22;9762;52.490;13.410;2022-11-15T14:50:31;16.30;93.50
19256;DHT22;9762;52.490;13.410;2022-11-15T14:52:57;16.30;93.50
19256;DHT22;9762;52.490;13.410;2022-11-15T14:57:50;16.30;93.50
19256;DHT22;9762;52.490;13.410;2022-11-15T15:00:16;16.20;93.50
19256;DHT22;9762;52.490;13.410;2022-11-15T15:02:43;16.20;93.60
19256;DHT22;9762;52.490;13.410;2022-11-15T15:05:24;16.20;93.70
19256;DHT22;9762;52.490;13.410;2022-11-15T15:07:51;16.10;93.80
19256;DHT22;9762;52.490;13.410;2022-11-15T15:10:19;16.10;93.90
19256;DHT22;9762;52.490;13.410;2022-11-15T15:12:45;16.00;94.00
19256;DHT22;9762;52.490;13.410;2022-11-15T15:15:25;16.00;94.10
19256;DHT22;9762;52.490;13.410;2022-11-15T15:17:51;16.00;94.20
19256;DHT22;9762;52.490;13.410;2022-11-15T15:20:17;16.00;94.30
19256;DHT22;9762;52.490;13.410;2022-11-15T15:23:20;15.90;94.40
19256;DHT22;9762;52.490;13.410;2022-11-15T15:25:47;15.90;94.40
19256;DHT22;9762;52.490;13.410;2022-11-15T15:28:14;15.90;94.40
19256;DHT22;9762;52.490;13.410;2022-11-15T15:30:40;15.90;94.40
19256;DHT22;9762;52.490;13.410;2022-11-15T15:33:06;15.90;94.40
19256;DHT22;9762;52.490;13.410;2022-11-15T15:35:34;15.90;94.50
19256;DHT22;9762;52.490;13.410;2022-11-15T15:38:00;15.90;94.50
19256;DHT22;9762;52.490;13.410;2022-11-15T15:40:28;15.80;94.40
19256;DHT22;9762;52.490;13.410;2022-11-15T15:42:55;15.80;94.50
19256;DHT22;9762;52.490;13.410;2022-11-15T15:45:20;15.80;94.70
19256;DHT22;9762;52.490;13.410;2022-11-15T15:47:46;15.80;94.70
19256;DHT22;9762;52.490;13.410;2022-11-15T15:50:20;15.70;94.70
19256;DHT22;9762;52.490;13.410;2022-11-15T15:52:46;15.70;94.60
19256;DHT22;9762;52.490;13.410;2022-11-15T15:55:12;15.70;94.80
19256;DHT22;9762;52.490;13.410;2022-11-15T15:57:37;15.70;94.80
19256;DHT22;9762;52.490;13.410;2022-11-15T16:00:04;15.60;94.80
19256;DHT22;9762;52.490;13.410;2022-11-15T16:02:30;15.60;94.90
19256;DHT22;9762;52.490;13.410;2022-11-15T16:04:55;15.60;94.90
19256;DHT22;9762;52.490;13.410;2022-11-15T16:07:22;15.50;95.00
19256;DHT22;9762;52.490;13.410;2022-11-15T16:09:49;15.50;95.10
19256;DHT22;9762;52.490;13.410;2022-11-15T16:12:29;15.50;95.20
19256;DHT22;9762;52.490;13.410;2022-11-15T16:14:55;15.40;95.30
19256;DHT22;9762;52.490;13.410;2022-11-15T16:17:23;15.40;95.40
19256;DHT22;9762;52.490;13.410;2022-11-15T16:19:49;15.30;95.40
19256;DHT22;9762;52.490;13.410;2022-11-15T16:22:14;15.30;95.60
19256;DHT22;9762;52.490;13.410;2022-11-15T16:24:40;15.20;95.70
19256;DHT22;9762;52.490;13.410;2022-11-15T16:27:09;15.20;95.70
19256;DHT22;9762;52.490;13.410;2022-11-15T16:29:37;15.20;95.90
19256;DHT22;9762;52.490;13.410;2022-11-15T16:32:03;15.10;96.00
19256;DHT22;9762;52.490;13.410;2022-11-15T16:34:28;15.00;96.10
19256;DHT22;9762;52.490;13.410;2022-11-15T16:36:54;15.00;96.10
19256;DHT22;9762;52.490;13.410;2022-11-15T16:39:20;15.00;96.30
19256;DHT22;9762;52.490;13.410;2022-11-15T16:41:47;14.90;96.30
19256;DHT22;9762;52.490;13.410;2022-11-15T16:44:13;14.90;96.30
19256;DHT22;9762;52.490;13.410;2022-11-15T16:46:41;14.90;96.50
19256;DHT22;9762;52.490;13.410;2022-11-15T16:49:14;14.80;96.50
19256;DHT22;9762;52.490;13.410;2022-11-15T16:51:46;14.80;96.60
19256;DHT22;9762;52.490;13.410;2022-11-15T16:54:12;14.80;96.60
19256;DHT22;9762;52.490;13.410;2022-11-15T16:56:39;14.70;96.70
19256;DHT22;9762;52.490;13.410;2022-11-15T16:59:05;14.60;96.80
19256;DHT22;9762;52.490;13.410;2022-11-15T17:01:33;14.60;97.00
19256;DHT22;9762;52.490;13.410;2022-11-15T17:04:00;14.60;97.00
19256;DHT22;9762;52.490;13.410;2022-11-15T17:06:37;14.50;97.20
19256;DHT22;9762;52.490;13.410;2022-11-15T17:09:04;14.50;97.20
19256;DHT22;9762;52.490;13.410;2022-11-15T17:11:29;14.40;97.20
19256;DHT22;9762;52.490;13.410;2022-11-15T17:13:58;14.30;97.50
19256;DHT22;9762;52.490;13.410;2022-11-15T17:16:24;14.20;97.60
19256;DHT22;9762;52.490;13.410;2022-11-15T17:18:51;14.20;98.20
19256;DHT22;9762;52.490;13.410;2022-11-15T17:21:20;14.00;98.10
19256;DHT22;9762;52.490;13.410;2022-11-15T17:23:47;13.90;98.30
19256;DHT22;9762;52.490;13.410;2022-11-15T17:26:14;13.80;98.40
19256;DHT22;9762;52.490;13.410;2022-11-15T17:28:40;13.70;98.50
19256;DHT22;9762;52.490;13.410;2022-11-15T17:31:07;13.70;98.50
19256;DHT22;9762;52.490;13.410;2022-11-15T17:33:34;13.60;98.50
19256;DHT22;9762;52.490;13.410;2022-11-15T17:36:02;13.60;98.60
19256;DHT22;9762;52.490;13.410;2022-11-15T17:38:28;13.60;98.50